Time;durP1;ratioP1;P1;durP2;ratioP2;P2;SDS_P1;SDS_P2;PMS_P1;PMS_P2;Temp;Humidity;BMP_temperature;BMP_pressure;BME280_temperature;BME280_humidity;BME280_pressure;Samples;Min_cycle;Max_cycle;Signal;HPM_P1;HPM_P2
2022/01/29 00:00:49;;;;;;;11.57;10.27;;;5.30;99.90;;;;;;5047547;28;20405;-74
2022/01/29 00:03:14;;;;;;;11.47;10.27;;;5.40;99.90;;;;;;5047341;28;20175;-73
2022/01/29 00:05:40;;;;;;;12.30;9.90;;;5.40;99.90;;;;;;5047414;28;20187;-73
2022/01/29 00:08:05;;;;;;;10.60;9.20;;;5.40;99.90;;;;;;5046962;28;20592;-73
2022/01/29 00:10:31;;;;;;;11.33;9.13;;;5.40;99.90;;;;;;5047443;28;20210;-74
2022/01/29 00:12:58;;;;;;;11.30;9.80;;;5.30;99.90;;;;;;5047298;28;20171;-73
2022/01/29 00:15:23;;;;;;;11.67;10.00;;;5.30;99.90;;;;;;5047329;28;21031;-74
2022/01/29 00:17:49;;;;;;;10.30;9.23;;;5.30;99.90;;;;;;5046637;28;20484;-74
2022/01/29 00:20:15;;;;;;;14.20;10.80;;;5.40;99.90;;;;;;5047317;28;20602;-73
2022/01/29 00:22:41;;;;;;;12.60;9.83;;;5.20;99.90;;;;;;5046881;28;20175;-74
2022/01/29 00:25:08;;;;;;;15.87;9.93;;;5.20;99.90;;;;;;5047268;28;20189;-74
2022/01/29 00:27:35;;;;;;;16.07;11.07;;;5.20;99.90;;;;;;5046889;28;20503;-73
2022/01/29 00:30:06;;;;;;;12.43;10.10;;;5.30;99.90;;;;;;5045442;28;20495;-73
2022/01/29 00:32:32;;;;;;;15.60;10.80;;;5.40;99.90;;;;;;5028494;28;20805;-74
2022/01/29 00:34:57;;;;;;;12.00;10.80;;;5.30;99.90;;;;;;5046838;28;20417;-74
2022/01/29 00:37:23;;;;;;;11.17;9.37;;;5.30;99.90;;;;;;5046055;28;20209;-74
2022/01/29 00:39:49;;;;;;;10.30;9.20;;;5.20;99.90;;;;;;5028383;28;20762;-74
2022/01/29 00:42:14;;;;;;;9.87;8.87;;;5.20;99.90;;;;;;5046697;28;20212;-73
2022/01/29 00:44:40;;;;;;;15.63;10.23;;;5.20;99.90;;;;;;5046935;28;20186;-73
2022/01/29 00:47:05;;;;;;;14.37;10.17;;;5.30;99.90;;;;;;5046086;28;20202;-74
2022/01/29 00:49:31;;;;;;;11.03;8.77;;;5.40;99.90;;;;;;5028153;28;20809;-73
2022/01/29 00:51:57;;;;;;;10.33;8.97;;;5.40;99.90;;;;;;5046561;28;20262;-74
2022/01/29 00:54:23;;;;;;;12.93;10.00;;;5.40;99.90;;;;;;5046336;28;20179;-74
2022/01/29 00:56:48;;;;;;;10.50;8.20;;;5.20;99.90;;;;;;5047072;28;20198;-74
2022/01/29 00:59:14;;;;;;;11.20;8.67;;;5.20;99.90;;;;;;5074405;22;20228;-69
2022/01/29 01:01:39;;;;;;;11.83;9.90;;;5.20;99.90;;;;;;5047407;28;20182;-71
2022/01/29 01:04:05;;;;;;;11.13;9.57;;;5.30;99.90;;;;;;5054041;28;20649;-68
2022/01/29 01:06:31;;;;;;;10.83;9.13;;;5.20;99.90;;;;;;5054995;28;20222;-70
2022/01/29 01:08:56;;;;;;;10.47;8.70;;;5.00;99.90;;;;;;5054176;28;20191;-71
2022/01/29 01:11:22;;;;;;;8.43;7.60;;;5.00;99.90;;;;;;5053974;28;20201;-71
2022/01/29 01:13:47;;;;;;;14.13;8.67;;;5.20;99.90;;;;;;5053479;28;20182;-70
2022/01/29 01:16:13;;;;;;;9.10;8.20;;;5.20;99.90;;;;;;5053388;28;20178;-70
2022/01/29 01:18:39;;;;;;;9.37;8.13;;;5.30;99.90;;;;;;5053933;28;20194;-70
2022/01/29 01:21:04;;;;;;;9.03;7.90;;;5.40;99.90;;;;;;5053453;28;20179;-72
2022/01/29 01:23:30;;;;;;;12.80;7.83;;;5.40;99.90;;;;;;5046753;28;20234;-72
2022/01/29 01:25:56;;;;;;;9.47;7.90;;;5.50;99.90;;;;;;5053701;28;20174;-70
2022/01/29 01:28:22;;;;;;;7.90;7.10;;;5.50;99.90;;;;;;5053787;28;20213;-67
2022/01/29 01:30:48;;;;;;;9.10;8.20;;;5.40;99.90;;;;;;5053219;28;20587;-69
2022/01/29 01:33:13;;;;;;;9.40;8.13;;;5.40;99.90;;;;;;5037239;28;20410;-72
2022/01/29 01:35:49;;;;;;;9.63;6.90;;;5.60;99.90;;;;;;5053601;28;20412;-69
2022/01/29 01:40:45;;;;;;;10.80;8.10;;;5.60;99.90;;;;;;5052933;28;20401;-70
2022/01/29 01:43:11;;;;;;;9.43;7.63;;;5.60;99.90;;;;;;5053845;28;20412;-71
2022/01/29 01:45:37;;;;;;;10.00;7.73;;;5.50;99.90;;;;;;5053389;28;20405;-70
2022/01/29 01:48:05;;;;;;;7.73;6.93;;;5.60;99.90;;;;;;5052325;28;20636;-70
2022/01/29 01:50:31;;;;;;;7.90;7.10;;;5.60;99.90;;;;;;5052818;28;20171;-69
2022/01/29 01:52:57;;;;;;;10.40;7.93;;;5.70;99.90;;;;;;5053282;28;20415;-69
2022/01/29 01:55:23;;;;;;;8.73;6.80;;;5.60;99.90;;;;;;5050056;28;20429;-70
2022/01/29 01:57:49;;;;;;;10.37;8.70;;;5.70;99.90;;;;;;5053109;28;20415;-69
2022/01/29 02:00:15;;;;;;;8.53;7.73;;;5.80;99.90;;;;;;5052335;28;20481;-69
2022/01/29 02:02:41;;;;;;;15.17;8.60;;;5.70;99.90;;;;;;5052662;28;20174;-69
2022/01/29 02:05:08;;;;;;;9.47;7.37;;;5.70;99.90;;;;;;5050977;28;20436;-69
2022/01/29 02:07:34;;;;;;;7.60;6.80;;;5.60;99.90;;;;;;5052559;28;20199;-70
2022/01/29 02:10:00;;;;;;;11.00;7.60;;;5.70;99.90;;;;;;5052642;28;20456;-69
2022/01/29 02:12:28;;;;;;;10.10;8.33;;;5.60;99.90;;;;;;5052708;28;20778;-70
2022/01/29 02:14:56;;;;;;;9.83;8.10;;;5.60;99.90;;;;;;5040048;28;20177;-69
2022/01/29 02:17:22;;;;;;;17.50;9.47;;;5.60;99.90;;;;;;5052298;28;20853;-70
2022/01/29 02:19:47;;;;;;;8.20;7.30;;;5.50;99.90;;;;;;5052790;28;20444;-69
2022/01/29 02:22:13;;;;;;;9.87;8.47;;;5.60;99.90;;;;;;5051856;28;20187;-69
2022/01/29 02:24:38;;;;;;;8.17;7.30;;;5.60;99.90;;;;;;5051602;28;20175;-69
2022/01/29 02:27:04;;;;;;;9.67;7.73;;;5.60;99.90;;;;;;5047950;28;20194;-70
2022/01/29 02:29:33;;;;;;;11.60;7.13;;;5.60;99.90;;;;;;5051324;28;20191;-70
2022/01/29 02:31:59;;;;;;;7.23;6.40;;;5.50;99.90;;;;;;5037758;28;20281;-72
2022/01/29 02:34:25;;;;;;;7.20;5.93;;;5.50;99.90;;;;;;5038074;28;20477;-69
2022/01/29 02:36:52;;;;;;;7.43;5.60;;;5.50;99.90;;;;;;5051638;28;20236;-70
2022/01/29 02:39:19;;;;;;;6.67;6.00;;;5.50;99.90;;;;;;5051522;28;20445;-69
2022/01/29 02:41:45;;;;;;;7.40;6.67;;;5.40;99.90;;;;;;5051581;28;20424;-68
2022/01/29 02:44:15;;;;;;;7.13;5.17;;;5.40;99.90;;;;;;5052243;28;20432;-69
2022/01/29 02:49:13;;;;;;;6.97;6.27;;;5.40;99.90;;;;;;5051490;28;20437;-71
2022/01/29 02:52:05;;;;;;;8.90;6.80;;;5.40;99.90;;;;;;5051601;28;20779;-70
2022/01/29 02:54:34;;;;;;;6.03;5.43;;;5.40;99.90;;;;;;5045996;28;20432;-70
2022/01/29 02:56:59;;;;;;;7.43;6.67;;;5.20;99.90;;;;;;5050662;28;20471;-69
2022/01/29 02:59:25;;;;;;;10.57;6.70;;;5.00;99.90;;;;;;5049922;28;20952;-69
2022/01/29 03:01:50;;;;;;;9.00;5.83;;;4.80;99.90;;;;;;5045901;28;20174;-72
2022/01/29 03:04:16;;;;;;;6.37;5.67;;;4.70;99.90;;;;;;5049383;28;20217;-70
2022/01/29 03:06:42;;;;;;;9.10;6.23;;;4.70;99.90;;;;;;5049641;28;20213;-68
2022/01/29 03:09:08;;;;;;;8.73;6.60;;;4.70;99.90;;;;;;5035975;28;20199;-71
2022/01/29 03:11:34;;;;;;;9.40;6.40;;;4.60;99.90;;;;;;5048437;28;20179;-68
2022/01/29 03:14:00;;;;;;;7.47;5.80;;;4.50;99.90;;;;;;5051561;28;20432;-70
2022/01/29 03:16:25;;;;;;;7.93;6.47;;;4.50;99.90;;;;;;5051979;28;20520;-69
2022/01/29 03:18:51;;;;;;;8.00;5.47;;;4.40;99.90;;;;;;5052431;28;20266;-69
2022/01/29 03:21:17;;;;;;;7.07;6.37;;;4.50;99.90;;;;;;5052451;28;20205;-66
2022/01/29 03:23:42;;;;;;;9.10;5.60;;;4.60;99.90;;;;;;5051927;28;20208;-71
2022/01/29 03:26:08;;;;;;;7.67;6.37;;;4.70;99.90;;;;;;5051766;28;20238;-68
2022/01/29 03:28:34;;;;;;;6.70;6.00;;;4.70;99.90;;;;;;5052116;28;20210;-71
2022/01/29 03:30:59;;;;;;;10.20;6.87;;;4.70;99.90;;;;;;5050754;28;20178;-71
2022/01/29 03:33:29;;;;;;;9.13;6.07;;;4.70;99.90;;;;;;5049586;28;20261;-71
2022/01/29 03:35:54;;;;;;;8.20;6.03;;;4.80;99.90;;;;;;5051191;28;20712;-71
2022/01/29 03:38:22;;;;;;;6.23;5.53;;;4.80;99.90;;;;;;5033470;28;20436;-72
2022/01/29 03:40:50;;;;;;;9.80;5.77;;;4.90;99.90;;;;;;5045703;28;20712;-70
2022/01/29 03:43:24;;;;;;;6.50;5.23;;;5.00;99.90;;;;;;5050527;28;20413;-72
2022/01/29 03:45:50;;;;;;;4.93;4.10;;;5.10;99.90;;;;;;5051026;28;20400;-70
2022/01/29 03:48:15;;;;;;;5.77;5.20;;;5.20;99.90;;;;;;5051147;28;20490;-71
2022/01/29 03:50:41;;;;;;;7.23;5.77;;;5.30;99.90;;;;;;5050754;28;20378;-70
2022/01/29 03:53:07;;;;;;;6.63;5.37;;;5.30;99.90;;;;;;5034758;28;20201;-71
2022/01/29 03:55:33;;;;;;;6.27;5.23;;;5.40;99.90;;;;;;5050919;28;20228;-69
2022/01/29 03:57:58;;;;;;;5.13;4.60;;;5.40;99.90;;;;;;5050726;28;20452;-69
2022/01/29 04:00:24;;;;;;;7.33;5.70;;;5.50;99.90;;;;;;5050832;28;20198;-70
2022/01/29 04:02:50;;;;;;;6.63;5.53;;;5.50;99.90;;;;;;5051330;28;20240;-71
2022/01/29 04:05:15;;;;;;;5.70;5.20;;;5.50;99.90;;;;;;5051464;28;20232;-70
2022/01/29 04:07:41;;;;;;;7.10;5.50;;;5.60;99.90;;;;;;5050132;28;20199;-70
2022/01/29 04:10:07;;;;;;;6.93;6.20;;;5.50;99.90;;;;;;5054950;28;20286;-70
2022/01/29 04:12:40;;;;;;;6.70;5.47;;;5.60;99.90;;;;;;5050789;28;20495;-69
2022/01/29 04:15:06;;;;;;;9.33;5.10;;;5.60;99.90;;;;;;5051048;28;20599;-70
2022/01/29 04:17:32;;;;;;;7.17;4.60;;;5.50;99.90;;;;;;5050783;28;20499;-69
2022/01/29 04:19:57;;;;;;;5.40;4.70;;;5.40;99.90;;;;;;5033813;28;20441;-70
2022/01/29 04:22:23;;;;;;;6.40;4.50;;;5.50;99.90;;;;;;5053086;28;20193;-69
2022/01/29 04:24:48;;;;;;;4.87;3.77;;;5.60;99.90;;;;;;5054467;28;20182;-72
2022/01/29 04:27:18;;;;;;;4.80;4.40;;;5.70;99.90;;;;;;5054196;28;20202;-69
2022/01/29 04:29:56;;;;;;;4.03;3.47;;;5.60;99.90;;;;;;5043910;28;20574;-70
2022/01/29 04:32:43;;;;;;;4.27;3.87;;;5.50;99.90;;;;;;5036379;28;20421;-72
2022/01/29 04:35:09;;;;;;;4.77;3.80;;;5.50;99.90;;;;;;5055044;28;20455;-68
2022/01/29 04:37:34;;;;;;;4.80;3.20;;;5.60;99.90;;;;;;5054062;28;20413;-72
2022/01/29 04:40:00;;;;;;;4.40;3.27;;;5.70;99.90;;;;;;5044265;28;20692;-70
2022/01/29 04:42:26;;;;;;;4.17;3.37;;;5.80;99.90;;;;;;5053464;28;20171;-68
2022/01/29 04:44:52;;;;;;;3.77;3.47;;;5.80;99.90;;;;;;5044528;28;20186;-69
2022/01/29 04:47:17;;;;;;;3.70;3.40;;;5.80;99.90;;;;;;5054029;28;20209;-70
2022/01/29 04:49:43;;;;;;;4.03;3.27;;;5.70;99.90;;;;;;5054259;28;20199;-72
2022/01/29 04:52:08;;;;;;;4.47;3.40;;;5.60;99.90;;;;;;5053630;28;20179;-70
2022/01/29 04:54:34;;;;;;;4.80;4.30;;;5.60;99.90;;;;;;5053947;28;20509;-68
2022/01/29 04:56:59;;;;;;;5.43;3.97;;;5.50;99.90;;;;;;5053956;28;20677;-70
2022/01/29 04:59:25;;;;;;;5.10;3.83;;;5.60;99.90;;;;;;5053555;28;20218;-69
2022/01/29 05:01:51;;;;;;;7.87;4.27;;;5.60;99.90;;;;;;5054320;28;20266;-73
2022/01/29 05:04:18;;;;;;;5.60;4.10;;;5.40;99.90;;;;;;5053873;28;20186;-70
2022/01/29 05:06:43;;;;;;;7.50;4.43;;;5.60;99.90;;;;;;5046070;28;20235;-73
2022/01/29 05:09:10;;;;;;;6.40;4.43;;;5.60;99.90;;;;;;5053747;28;20445;-70
2022/01/29 05:11:36;;;;;;;4.87;4.47;;;5.70;99.90;;;;;;5053461;28;20181;-70
2022/01/29 05:14:04;;;;;;;6.20;5.40;;;5.70;99.90;;;;;;5053490;28;20413;-70
2022/01/29 05:16:42;;;;;;;5.80;5.20;;;5.60;99.90;;;;;;5053106;28;20786;-70
2022/01/29 05:27:20;;;;;;;8.50;7.67;;;5.00;99.90;;;;;;5053937;28;20439;-72
2022/01/29 05:29:45;;;;;;;9.80;7.33;;;5.10;99.90;;;;;;5053309;28;20788;-71
2022/01/29 05:32:12;;;;;;;9.53;8.57;;;5.10;99.90;;;;;;5053537;28;20222;-68
2022/01/29 05:34:40;;;;;;;14.27;9.67;;;5.20;99.90;;;;;;5052642;28;20245;-71
2022/01/29 05:37:06;;;;;;;10.53;9.43;;;5.10;99.90;;;;;;5043556;28;20424;-69
2022/01/29 05:39:31;;;;;;;12.00;9.37;;;5.10;99.90;;;;;;5052078;28;20479;-72
2022/01/29 05:41:58;;;;;;;11.10;9.60;;;5.00;99.90;;;;;;5052601;28;20631;-70
2022/01/29 05:44:24;;;;;;;13.20;9.70;;;5.10;99.90;;;;;;5052431;28;20237;-70
2022/01/29 05:46:51;;;;;;;12.60;9.97;;;5.10;99.90;;;;;;5052599;28;20547;-70
2022/01/29 05:49:16;;;;;;;11.40;9.77;;;5.20;99.90;;;;;;5042079;28;20441;-69
2022/01/29 05:51:42;;;;;;;16.80;10.70;;;5.20;99.90;;;;;;5053228;28;20413;-70
2022/01/29 05:54:07;;;;;;;12.93;10.40;;;5.00;99.90;;;;;;5052508;28;20573;-69
2022/01/29 05:56:33;;;;;;;14.47;10.30;;;5.00;99.90;;;;;;5052500;28;20218;-71
2022/01/29 05:58:59;;;;;;;13.63;9.73;;;5.10;99.90;;;;;;5051505;28;20214;-70
2022/01/29 06:01:24;;;;;;;13.80;10.57;;;5.10;99.90;;;;;;5052229;28;20232;-70
2022/01/29 06:03:50;;;;;;;12.60;11.30;;;5.30;99.90;;;;;;5050997;28;20319;-69
2022/01/29 06:06:16;;;;;;;13.37;11.03;;;5.20;99.90;;;;;;5052703;28;20208;-71
2022/01/29 06:08:41;;;;;;;14.37;10.97;;;5.10;99.90;;;;;;5051953;28;20202;-69
2022/01/29 06:11:07;;;;;;;12.77;10.73;;;5.30;99.90;;;;;;5052559;28;20175;-67
2022/01/29 06:13:33;;;;;;;23.40;15.40;;;5.10;99.90;;;;;;5052890;28;20280;-69
2022/01/29 06:16:01;;;;;;;13.40;11.93;;;5.20;99.90;;;;;;5051934;28;20187;-70
2022/01/29 06:18:27;;;;;;;17.03;11.13;;;5.20;99.90;;;;;;5049345;28;20290;-67
2022/01/29 06:20:55;;;;;;;15.60;13.30;;;4.90;99.90;;;;;;5053629;28;20452;-67
2022/01/29 06:23:28;;;;;;;14.63;12.47;;;5.00;99.90;;;;;;5052731;28;20549;-68
2022/01/29 06:25:54;;;;;;;15.93;12.90;;;5.10;99.90;;;;;;5052380;28;20476;-68
2022/01/29 06:28:20;;;;;;;14.97;12.03;;;5.10;99.90;;;;;;5045313;28;20473;-70
2022/01/29 06:30:46;;;;;;;15.00;12.50;;;5.30;99.90;;;;;;5051621;28;20425;-69
2022/01/29 06:33:13;;;;;;;16.73;13.03;;;5.20;99.90;;;;;;5051889;28;20244;-69
2022/01/29 06:35:41;;;;;;;14.10;12.17;;;5.00;99.90;;;;;;5041189;28;21109;-69
2022/01/29 06:38:08;;;;;;;19.53;13.90;;;5.10;99.90;;;;;;5051157;28;20417;-71
2022/01/29 06:40:35;;;;;;;13.20;11.03;;;5.20;99.90;;;;;;5050560;28;20502;-67
2022/01/29 06:43:04;;;;;;;13.80;12.03;;;5.30;99.90;;;;;;5052100;28;20471;-68
2022/01/29 06:45:30;;;;;;;15.87;11.70;;;5.30;99.90;;;;;;5050136;28;20425;-70
2022/01/29 06:47:56;;;;;;;12.83;11.40;;;5.30;99.90;;;;;;5039680;28;20456;-68
2022/01/29 06:50:22;;;;;;;15.23;12.03;;;5.20;99.90;;;;;;5052139;28;20428;-68
2022/01/29 06:52:48;;;;;;;15.57;11.47;;;5.30;99.90;;;;;;5052178;28;20186;-71
2022/01/29 06:55:14;;;;;;;15.27;12.63;;;5.30;99.90;;;;;;5052107;28;20413;-68
2022/01/29 06:57:39;;;;;;;15.73;13.53;;;5.20;99.90;;;;;;5052211;28;20439;-69
2022/01/29 07:00:09;;;;;;;15.97;13.63;;;5.00;99.90;;;;;;5051933;28;20225;-72
2022/01/29 07:02:36;;;;;;;19.17;13.00;;;5.00;99.90;;;;;;5042223;28;20192;-72
2022/01/29 07:05:03;;;;;;;15.77;13.70;;;5.10;99.90;;;;;;5052857;28;20409;-69
2022/01/29 07:07:29;;;;;;;15.77;12.97;;;5.20;99.90;;;;;;5045139;28;20461;-70
2022/01/29 07:09:55;;;;;;;19.13;13.17;;;5.40;99.90;;;;;;5052090;28;20465;-69
2022/01/29 07:12:21;;;;;;;19.20;12.97;;;5.30;99.90;;;;;;5051195;28;20170;-69
2022/01/29 07:14:49;;;;;;;13.03;10.27;;;5.30;99.90;;;;;;5043770;28;20425;-69
2022/01/29 07:17:17;;;;;;;12.00;10.20;;;5.40;99.90;;;;;;5051945;28;20269;-71
2022/01/29 07:19:43;;;;;;;12.40;10.60;;;5.30;99.90;;;;;;5046024;28;20527;-68
2022/01/29 07:22:09;;;;;;;13.00;11.07;;;5.20;99.90;;;;;;5051497;28;20413;-67
2022/01/29 07:24:35;;;;;;;11.80;10.00;;;5.30;99.90;;;;;;5040829;28;20475;-70
2022/01/29 07:27:03;;;;;;;14.03;11.47;;;5.30;99.90;;;;;;5051732;28;20441;-70
2022/01/29 07:29:28;;;;;;;11.63;10.00;;;5.20;99.90;;;;;;5032022;28;20540;-69
2022/01/29 07:31:56;;;;;;;13.53;11.40;;;5.20;99.90;;;;;;5045220;28;20862;-71
2022/01/29 07:34:22;;;;;;;11.43;9.70;;;5.30;99.90;;;;;;5052072;28;20198;-68
2022/01/29 07:36:48;;;;;;;10.23;9.10;;;5.40;99.90;;;;;;5051837;28;20503;-72
2022/01/29 07:39:14;;;;;;;11.37;8.57;;;5.50;99.90;;;;;;5050722;28;20469;-73
2022/01/29 07:41:39;;;;;;;10.40;8.63;;;5.50;99.90;;;;;;5050256;28;20655;-71
2022/01/29 07:44:05;;;;;;;11.17;8.90;;;5.40;99.90;;;;;;5050911;28;20589;-69
2022/01/29 07:46:31;;;;;;;11.57;7.73;;;5.50;99.90;;;;;;5050031;28;20204;-70
2022/01/29 07:48:56;;;;;;;9.40;8.50;;;5.50;99.90;;;;;;5051636;28;20198;-70
2022/01/29 07:51:22;;;;;;;6.13;5.53;;;5.60;99.90;;;;;;5051257;28;20175;-70
2022/01/29 07:53:47;;;;;;;6.13;5.40;;;5.60;99.90;;;;;;5039027;28;20182;-70
2022/01/29 07:56:13;;;;;;;5.80;4.83;;;5.50;99.90;;;;;;5051027;28;20199;-69
2022/01/29 07:58:39;;;;;;;6.00;4.90;;;5.50;99.90;;;;;;5055275;28;20268;-70
2022/01/29 08:01:04;;;;;;;4.73;4.23;;;5.50;99.90;;;;;;5054535;28;20233;-69
2022/01/29 08:03:30;;;;;;;8.90;4.47;;;5.50;99.90;;;;;;5055468;28;20238;-69
2022/01/29 08:05:55;;;;;;;6.70;5.10;;;5.50;99.90;;;;;;5055179;28;20214;-69
2022/01/29 08:08:21;;;;;;;6.57;4.57;;;5.50;99.90;;;;;;5054934;28;20401;-72
2022/01/29 08:10:47;;;;;;;4.90;4.10;;;5.70;99.90;;;;;;5055244;28;20699;-71
2022/01/29 08:13:12;;;;;;;5.00;3.90;;;5.60;99.90;;;;;;5055197;28;20170;-70
2022/01/29 08:15:38;;;;;;;3.97;3.60;;;5.60;99.90;;;;;;5048540;28;20743;-70
2022/01/29 08:18:05;;;;;;;4.53;4.10;;;5.60;99.90;;;;;;5054319;28;20213;-71
2022/01/29 08:20:31;;;;;;;6.13;3.50;;;5.70;99.90;;;;;;5054147;28;20175;-70
2022/01/29 08:22:57;;;;;;;4.80;3.63;;;5.70;99.90;;;;;;5054203;28;20776;-68
2022/01/29 08:25:22;;;;;;;4.37;3.93;;;5.80;99.90;;;;;;5055315;28;20434;-70
2022/01/29 08:27:48;;;;;;;3.73;3.37;;;5.70;99.90;;;;;;5037328;28;20205;-70
2022/01/29 08:30:14;;;;;;;4.30;3.87;;;5.80;99.90;;;;;;5054236;28;20543;-71
2022/01/29 08:32:43;;;;;;;4.47;4.07;;;5.80;99.90;;;;;;5051674;28;20213;-70
2022/01/29 08:35:12;;;;;;;6.10;4.67;;;5.80;99.90;;;;;;5054934;28;20166;-70
2022/01/29 08:37:38;;;;;;;5.60;4.57;;;6.00;99.90;;;;;;5054669;28;20435;-69
2022/01/29 08:40:05;;;;;;;5.23;4.00;;;6.20;99.90;;;;;;5047945;28;20957;-71
2022/01/29 08:42:31;;;;;;;4.90;4.00;;;6.30;99.90;;;;;;5055399;28;20198;-67
2022/01/29 08:44:56;;;;;;;7.07;5.00;;;6.50;99.90;;;;;;5058342;28;20437;-70
2022/01/29 08:47:22;;;;;;;10.90;4.87;;;6.30;99.90;;;;;;5057521;28;20305;-70
2022/01/29 08:49:48;;;;;;;6.87;5.47;;;6.40;99.90;;;;;;5055619;28;20520;-71
2022/01/29 08:52:14;;;;;;;5.90;5.07;;;6.40;99.90;;;;;;5054910;28;20176;-71
2022/01/29 08:54:40;;;;;;;6.57;4.87;;;6.50;99.90;;;;;;5053198;28;20430;-70
2022/01/29 08:57:06;;;;;;;5.40;4.63;;;6.40;99.90;;;;;;5045599;28;20709;-68
2022/01/29 08:59:31;;;;;;;5.50;4.00;;;6.40;99.90;;;;;;5053847;28;20290;-69
2022/01/29 09:01:57;;;;;;;5.00;4.00;;;6.30;99.90;;;;;;5054773;28;20414;-70
2022/01/29 09:04:22;;;;;;;5.20;4.70;;;6.50;99.90;;;;;;5054018;28;20222;-69
2022/01/29 09:06:48;;;;;;;5.67;5.13;;;6.60;99.90;;;;;;5054299;28;20230;-70
2022/01/29 09:09:20;;;;;;;8.03;5.03;;;6.40;99.90;;;;;;5052948;28;20187;-72
2022/01/29 09:11:46;;;;;;;6.03;5.43;;;6.50;99.90;;;;;;5041014;28;20339;-71
2022/01/29 09:14:12;;;;;;;5.63;4.70;;;6.40;99.90;;;;;;5053302;28;20457;-69
2022/01/29 09:16:37;;;;;;;5.17;4.67;;;6.70;99.90;;;;;;5053127;28;20414;-70
2022/01/29 09:19:03;;;;;;;6.03;5.43;;;6.50;99.90;;;;;;5068897;22;20216;-73
2022/01/29 09:21:29;;;;;;;6.13;5.30;;;6.60;99.90;;;;;;5046408;28;20490;-73
2022/01/29 09:23:56;;;;;;;6.60;4.80;;;6.80;99.90;;;;;;5046012;28;20175;-73
2022/01/29 09:26:22;;;;;;;6.33;5.40;;;6.90;99.90;;;;;;5046039;28;20197;-73
2022/01/29 09:28:48;;;;;;;7.63;5.40;;;6.90;99.90;;;;;;5046660;28;20530;-73
2022/01/29 09:31:14;;;;;;;7.30;4.97;;;7.00;99.90;;;;;;5029043;28;20419;-73
2022/01/29 09:33:39;;;;;;;5.57;5.00;;;6.90;99.90;;;;;;5046266;28;20188;-73
2022/01/29 09:36:05;;;;;;;6.70;5.23;;;7.20;99.90;;;;;;5045668;28;20180;-73
2022/01/29 09:38:31;;;;;;;7.30;5.20;;;7.30;99.90;;;;;;5045829;28;20673;-73
2022/01/29 09:40:57;;;;;;;7.43;4.93;;;7.30;99.90;;;;;;5044781;28;20527;-72
2022/01/29 09:43:27;;;;;;;6.00;5.43;;;7.20;99.90;;;;;;5036159;28;20189;-72
2022/01/29 09:45:54;;;;;;;6.67;5.10;;;7.20;99.90;;;;;;5045820;28;20786;-73
2022/01/29 09:48:24;;;;;;;12.13;5.23;;;7.30;99.90;;;;;;5045409;28;20459;-73
2022/01/29 09:50:52;;;;;;;6.00;5.10;;;7.70;99.90;;;;;;5035437;28;20482;-73
2022/01/29 09:53:18;;;;;;;6.57;5.70;;;7.70;99.90;;;;;;5045302;28;20510;-73
2022/01/29 09:55:44;;;;;;;5.77;5.00;;;7.90;99.90;;;;;;5045419;28;20425;-74
2022/01/29 09:58:10;;;;;;;6.67;5.13;;;7.90;99.90;;;;;;5027480;28;20881;-73
2022/01/29 10:00:37;;;;;;;8.10;5.93;;;7.70;99.90;;;;;;5046031;28;20181;-73
2022/01/29 10:03:13;;;;;;;7.63;5.80;;;7.70;99.90;;;;;;5045108;28;20420;-74
2022/01/29 10:05:44;;;;;;;6.00;4.97;;;7.90;99.90;;;;;;5045621;28;20504;-73
2022/01/29 10:08:10;;;;;;;6.50;4.73;;;8.20;99.90;;;;;;5044097;28;20770;-73
2022/01/29 10:10:43;;;;;;;6.30;5.40;;;8.50;99.90;;;;;;5045363;28;20431;-73
2022/01/29 10:13:38;;;;;;;5.17;4.67;;;8.40;99.90;;;;;;5044952;28;20417;-73
2022/01/29 10:16:15;;;;;;;4.97;4.40;;;8.70;99.90;;;;;;5024103;28;20436;-74
2022/01/29 10:18:46;;;;;;;6.13;5.33;;;8.60;99.90;;;;;;5044663;28;20455;-73
2022/01/29 10:21:17;;;;;;;6.47;5.63;;;8.70;99.90;;;;;;5035574;28;20434;-73
2022/01/29 10:23:44;;;;;;;5.23;4.17;;;8.50;99.90;;;;;;5044918;28;20402;-73
2022/01/29 10:26:24;;;;;;;4.60;3.90;;;8.40;99.90;;;;;;5045311;28;20426;-72
2022/01/29 10:28:53;;;;;;;6.47;5.50;;;8.40;99.90;;;;;;5044940;28;20525;-74
2022/01/29 10:31:19;;;;;;;5.90;4.53;;;8.40;99.90;;;;;;5044903;28;21262;-74
2022/01/29 10:33:45;;;;;;;4.17;3.50;;;8.30;99.90;;;;;;5043906;28;20403;-74
2022/01/29 10:36:15;;;;;;;5.63;4.93;;;8.30;99.90;;;;;;5045019;28;20180;-74
2022/01/29 10:38:40;;;;;;;4.90;4.37;;;8.40;99.90;;;;;;5044769;28;20283;-74
2022/01/29 10:41:21;;;;;;;5.47;4.63;;;8.90;99.90;;;;;;5044578;28;20490;-74
2022/01/29 10:43:55;;;;;;;5.37;4.87;;;9.20;99.90;;;;;;5044609;28;20642;-74
2022/01/29 10:46:29;;;;;;;6.30;4.67;;;9.20;99.90;;;;;;5044502;28;20453;-74
2022/01/29 10:48:55;;;;;;;6.83;4.50;;;9.00;99.90;;;;;;5037921;28;20453;-73
2022/01/29 10:51:21;;;;;;;6.33;4.13;;;9.00;99.90;;;;;;5044597;28;20620;-73
2022/01/29 10:53:47;;;;;;;5.20;4.70;;;9.10;99.90;;;;;;5044443;28;20509;-74
2022/01/29 10:56:13;;;;;;;5.80;4.80;;;9.00;99.90;;;;;;5044392;28;21227;-73
2022/01/29 10:58:43;;;;;;;4.53;4.10;;;9.10;99.90;;;;;;5043558;28;20212;-74
2022/01/29 11:01:15;;;;;;;5.27;3.93;;;9.30;99.90;;;;;;5044231;28;20593;-74
2022/01/29 11:03:43;;;;;;;4.80;4.10;;;9.10;99.90;;;;;;5043334;28;20525;-74
2022/01/29 11:06:12;;;;;;;4.50;3.90;;;9.00;99.90;;;;;;5044076;28;20466;-74
2022/01/29 11:08:39;;;;;;;3.73;3.10;;;8.90;99.90;;;;;;5043763;28;20472;-74
2022/01/29 11:11:08;;;;;;;3.10;2.67;;;9.10;99.90;;;;;;5044077;28;20419;-74
2022/01/29 11:13:35;;;;;;;4.17;2.87;;;9.10;99.90;;;;;;5043985;28;20446;-73
2022/01/29 11:16:03;;;;;;;3.20;2.90;;;9.00;99.90;;;;;;5044363;28;20417;-74
2022/01/29 11:18:29;;;;;;;3.80;2.93;;;8.90;99.90;;;;;;5043231;28;20467;-73
2022/01/29 11:20:55;;;;;;;3.73;3.43;;;8.90;99.90;;;;;;5043934;28;20795;-73
2022/01/29 11:23:21;;;;;;;3.90;3.30;;;8.90;99.90;;;;;;5043723;28;20428;-73
2022/01/29 11:25:51;;;;;;;3.00;2.70;;;8.70;99.90;;;;;;5043689;28;20766;-73
2022/01/29 11:28:18;;;;;;;2.90;2.50;;;9.00;99.90;;;;;;5043294;28;20466;-73
2022/01/29 11:30:46;;;;;;;3.10;2.57;;;8.90;99.90;;;;;;5029708;28;20426;-74
2022/01/29 11:33:12;;;;;;;3.47;2.50;;;8.90;99.90;;;;;;5026332;28;20424;-73
2022/01/29 11:35:56;;;;;;;2.80;2.50;;;8.90;99.90;;;;;;5043628;28;20427;-72
2022/01/29 11:38:33;;;;;;;2.47;2.23;;;9.00;99.90;;;;;;5043430;28;20457;-72
2022/01/29 11:41:03;;;;;;;2.70;2.17;;;9.00;99.90;;;;;;5042535;28;20432;-74
2022/01/29 11:43:33;;;;;;;3.07;2.40;;;8.70;99.90;;;;;;5043622;28;20455;-73
2022/01/29 11:46:10;;;;;;;2.90;2.00;;;8.70;99.90;;;;;;5043403;28;20417;-74
2022/01/29 11:48:50;;;;;;;2.77;2.27;;;8.70;99.90;;;;;;5042953;28;20510;-74
2022/01/29 11:51:43;;;;;;;2.77;2.37;;;8.60;99.90;;;;;;5043492;28;20404;-74
2022/01/29 11:54:10;;;;;;;2.77;2.30;;;8.70;99.90;;;;;;5042718;28;20399;-73
2022/01/29 11:56:44;;;;;;;2.50;2.30;;;8.80;99.90;;;;;;5043100;28;20416;-73
2022/01/29 11:59:27;;;;;;;1.70;1.60;;;8.80;99.90;;;;;;5043523;28;20437;-75
2022/01/29 12:01:57;;;;;;;2.80;2.40;;;9.00;99.90;;;;;;5043289;28;20409;-73
2022/01/29 12:04:44;;;;;;;2.77;1.83;;;8.90;99.90;;;;;;5043070;28;20424;-73
2022/01/29 12:07:17;;;;;;;3.63;2.50;;;8.80;99.90;;;;;;5043520;28;20714;-72
2022/01/29 12:09:44;;;;;;;2.87;2.60;;;8.80;99.90;;;;;;5042455;28;20859;-73
2022/01/29 12:12:15;;;;;;;3.40;2.40;;;8.90;99.90;;;;;;5038571;28;20467;-73
2022/01/29 12:14:41;;;;;;;3.10;2.20;;;8.90;99.90;;;;;;5043522;28;20425;-73
2022/01/29 12:17:08;;;;;;;2.60;2.30;;;8.90;99.90;;;;;;5044426;28;20507;-72
2022/01/29 12:19:33;;;;;;;2.33;2.03;;;9.00;99.90;;;;;;5045332;28;20960;-72
2022/01/29 12:22:00;;;;;;;4.43;2.40;;;9.20;99.90;;;;;;5045622;28;20483;-72
2022/01/29 12:24:26;;;;;;;3.40;2.63;;;9.10;99.90;;;;;;5043128;28;20753;-72
2022/01/29 12:26:58;;;;;;;1.77;1.63;;;9.30;99.90;;;;;;5043401;28;20467;-73
2022/01/29 12:29:27;;;;;;;3.73;2.50;;;9.20;99.90;;;;;;5035159;28;20217;-75
2022/01/29 12:31:53;;;;;;;2.00;1.80;;;9.00;99.90;;;;;;5043542;28;20921;-72
2022/01/29 12:34:20;;;;;;;2.80;2.60;;;9.10;99.90;;;;;;5043505;28;20431;-72
2022/01/29 12:36:47;;;;;;;4.90;2.30;;;9.10;99.90;;;;;;5042957;28;20233;-73
2022/01/29 12:39:21;;;;;;;3.07;2.53;;;9.20;99.90;;;;;;5043457;28;20532;-72
2022/01/29 12:42:04;;;;;;;2.10;2.00;;;9.10;99.90;;;;;;5033765;28;20455;-72
2022/01/29 12:44:31;;;;;;;2.60;2.40;;;8.70;99.90;;;;;;5047272;28;20472;-73
2022/01/29 12:46:57;;;;;;;2.50;2.30;;;9.00;99.90;;;;;;5047579;28;21013;-73
2022/01/29 12:49:23;;;;;;;2.27;2.07;;;9.50;99.90;;;;;;5046564;28;20437;-73
2022/01/29 12:51:56;;;;;;;2.70;2.00;;;9.60;99.90;;;;;;5047318;28;20628;-74
2022/01/29 12:54:24;;;;;;;2.50;2.30;;;9.50;99.90;;;;;;5046769;28;20186;-74
2022/01/29 12:56:50;;;;;;;2.20;1.83;;;9.20;99.90;;;;;;5047140;28;20406;-73
2022/01/29 12:59:16;;;;;;;3.33;2.30;;;9.00;99.90;;;;;;5046508;28;20803;-73
2022/01/29 13:01:44;;;;;;;2.03;1.83;;;8.70;99.90;;;;;;5046592;28;20190;-73
2022/01/29 13:04:17;;;;;;;3.03;2.30;;;8.70;99.90;;;;;;5046422;28;20417;-73
2022/01/29 13:06:44;;;;;;;3.30;2.10;;;9.00;99.90;;;;;;5046771;28;20488;-72